Laneview, VA (22504)

7:35 PM EDT on September 01, 2014 (GMT -0400)
Remlik | Change Station
CLOSE
Current Station
Personal Weather Station
Location: Urbanna, VA
Elevation: 20 ft
Nearby Weather Stations

Elev 20 ft 37.68 °N, 76.62 °W | Updated 1 second ago

Partly Cloudy
Partly Cloudy
81.2 °F
Feels Like 87 °F
N
0.0
Wind Variable Wind from North
Gusts 0.0 mph

Today
High -- | Low -- °F
--% Chance of Precip.
Yesterday
High -- | Low -- °F
Precip. -- in
6:36 AM 7:36 PM
Waxing Crescent, 45% visible
Pressure 29.97 in
Visibility 10.0 miles
Clouds Scattered Clouds 6000 ft
Scattered Clouds 7000 ft
Heat Index 87 °F
Dew Point 74 °F
Humidity 80%
Rainfall 0.00 in
Snow Depth Not available.
UV 0 out of 12
Pollen 9.90 out of 12
Air Quality Not available.
Flu Activity Not available.
METAR KXSA 012315Z AUTO 00000KT 10SM SCT060 SCT070 31/20 A2997 RMK AO2 T03070204

More Conditions Fewer Conditions

Pressure 29.97 in
Visibility 10.0 miles
Clouds Scattered Clouds 6000 ft
Scattered Clouds 7000 ft
Heat Index 87 °F
Dew Point 74 °F
Humidity 80%
Rainfall 0.00 in
Snow Depth Not available.
UV 0 out of 12
Pollen 9.90 out of 12
Air Quality Not available.
Flu Activity Not available.
METAR KXSA 012315Z AUTO 00000KT 10SM SCT060 SCT070 31/20 A2997 RMK AO2 T03070204

More Conditions Fewer Conditions

10-Day Weather Forecast

Almanac

Astronomy

Sep. 01, 2014 Rise Set
Actual Time 6:36 AM EDT 7:36 PM EDT
Civil Twilight 6:09 AM EDT 8:02 PM EDT
Nautical Twilight 5:38 AM EDT 8:34 PM EDT
Astronomical Twilight 5:04 AM EDT 9:07 PM EDT
Moon 1:13 PM EDT 11:42 PM EDT
Length of Visible Light 13h 52m
Length of Day
12h 59m
Tomorrow will be 2m 21s shorter.
Waxing Crescent, 45% of the Moon is Illuminated
Today
Waxing Crescent
Sep 2
First Quarter
Sep 8
Full
Sep 15
Last Quarter
Sep 24
New

Today's Extremes

State Highs State Lows

Community

WunderPhotos

Upload Photos

1,749,440 photos uploaded!

Nearby

Snow Depth

Station Depth Elevation
No new snow has been reported.

Earthquake Activity

City Distance Mag. Time & Date
No recent earthquake activity has been reported nearby.
Minimum magnitude displayed is 2.5.

Coastal Water Temperatures

Place Temperature
No Stations Reporting

Nearby Weather Stations